sensor_id;sensor_type;location;lat;lon;timestamp;P1;durP1;ratioP1;P2;durP2;ratioP2
57778;SDS011;43608;49.486;9.640;2023-03-25T00:00:28;2.45;;;1.73;;
57778;SDS011;43608;49.486;9.640;2023-03-25T00:00:59;2.30;;;1.60;;
57778;SDS011;43608;49.486;9.640;2023-03-25T00:01:30;3.22;;;1.80;;
57778;SDS011;43608;49.486;9.640;2023-03-25T00:02:01;3.08;;;1.95;;
57778;SDS011;43608;49.486;9.640;2023-03-25T00:02:34;3.45;;;1.85;;
57778;SDS011;43608;49.486;9.640;2023-03-25T00:03:04;1.83;;;1.60;;
57778;SDS011;43608;49.486;9.640;2023-03-25T00:03:35;3.45;;;1.65;;
57778;SDS011;43608;49.486;9.640;2023-03-25T00:04:12;3.00;;;1.67;;
57778;SDS011;43608;49.486;9.640;2023-03-25T00:04:42;2.05;;;1.60;;
57778;SDS011;43608;49.486;9.640;2023-03-25T00:05:13;3.40;;;1.88;;
57778;SDS011;43608;49.486;9.640;2023-03-25T00:05:44;2.22;;;1.77;;
57778;SDS011;43608;49.486;9.640;2023-03-25T00:06:15;2.30;;;1.60;;
57778;SDS011;43608;49.486;9.640;2023-03-25T00:06:46;2.83;;;1.60;;
57778;SDS011;43608;49.486;9.640;2023-03-25T00:07:20;2.90;;;1.60;;
57778;SDS011;43608;49.486;9.640;2023-03-25T00:07:51;2.47;;;1.73;;
57778;SDS011;43608;49.486;9.640;2023-03-25T00:08:22;2.47;;;1.85;;
57778;SDS011;43608;49.486;9.640;2023-03-25T00:08:56;3.00;;;1.60;;
57778;SDS011;43608;49.486;9.640;2023-03-25T00:09:27;1.75;;;1.65;;
57778;SDS011;43608;49.486;9.640;2023-03-25T00:09:57;2.55;;;1.70;;
57778;SDS011;43608;49.486;9.640;2023-03-25T00:10:28;1.70;;;1.50;;
57778;SDS011;43608;49.486;9.640;2023-03-25T00:10:59;1.92;;;1.50;;
57778;SDS011;43608;49.486;9.640;2023-03-25T00:11:30;2.13;;;1.70;;
57778;SDS011;43608;49.486;9.640;2023-03-25T00:12:00;2.88;;;2.03;;
57778;SDS011;43608;49.486;9.640;2023-03-25T00:12:31;2.25;;;1.60;;
57778;SDS011;43608;49.486;9.640;2023-03-25T00:13:01;2.42;;;1.50;;
57778;SDS011;43608;49.486;9.640;2023-03-25T00:13:34;3.10;;;1.80;;
57778;SDS011;43608;49.486;9.640;2023-03-25T00:14:05;4.15;;;1.70;;
57778;SDS011;43608;49.486;9.640;2023-03-25T00:14:35;2.25;;;1.60;;
57778;SDS011;43608;49.486;9.640;2023-03-25T00:15:06;2.78;;;1.70;;
57778;SDS011;43608;49.486;9.640;2023-03-25T00:15:43;2.33;;;1.50;;
57778;SDS011;43608;49.486;9.640;2023-03-25T00:16:14;1.75;;;1.52;;
57778;SDS011;43608;49.486;9.640;2023-03-25T00:16:45;2.67;;;1.60;;
57778;SDS011;43608;49.486;9.640;2023-03-25T00:17:17;3.25;;;1.50;;
57778;SDS011;43608;49.486;9.640;2023-03-25T00:17:49;2.28;;;1.60;;
57778;SDS011;43608;49.486;9.640;2023-03-25T00:18:19;1.55;;;1.40;;
57778;SDS011;43608;49.486;9.640;2023-03-25T00:18:52;2.17;;;1.50;;
57778;SDS011;43608;49.486;9.640;2023-03-25T00:19:23;1.50;;;1.40;;
57778;SDS011;43608;49.486;9.640;2023-03-25T00:19:54;1.65;;;1.50;;
57778;SDS011;43608;49.486;9.640;2023-03-25T00:20:25;1.85;;;1.50;;
57778;SDS011;43608;49.486;9.640;2023-03-25T00:20:56;1.73;;;1.38;;
57778;SDS011;43608;49.486;9.640;2023-03-25T00:21:27;2.45;;;1.35;;
57778;SDS011;43608;49.486;9.640;2023-03-25T00:21:58;1.70;;;1.50;;
57778;SDS011;43608;49.486;9.640;2023-03-25T00:22:28;1.50;;;1.40;;
57778;SDS011;43608;49.486;9.640;2023-03-25T00:22:59;2.05;;;1.30;;
57778;SDS011;43608;49.486;9.640;2023-03-25T00:23:30;2.05;;;1.27;;
57778;SDS011;43608;49.486;9.640;2023-03-25T00:24:00;1.85;;;1.40;;
57778;SDS011;43608;49.486;9.640;2023-03-25T00:24:31;1.35;;;1.25;;
57778;SDS011;43608;49.486;9.640;2023-03-25T00:25:01;1.48;;;1.38;;
57778;SDS011;43608;49.486;9.640;2023-03-25T00:25:32;3.30;;;1.65;;
57778;SDS011;43608;49.486;9.640;2023-03-25T00:26:04;1.65;;;1.33;;
57778;SDS011;43608;49.486;9.640;2023-03-25T00:26:35;3.20;;;1.40;;
57778;SDS011;43608;49.486;9.640;2023-03-25T00:27:11;1.75;;;1.40;;
57778;SDS011;43608;49.486;9.640;2023-03-25T00:27:43;2.03;;;1.50;;
57778;SDS011;43608;49.486;9.640;2023-03-25T00:28:15;2.33;;;1.80;;
57778;SDS011;43608;49.486;9.640;2023-03-25T00:28:46;1.30;;;1.20;;
57778;SDS011;43608;49.486;9.640;2023-03-25T00:29:16;2.38;;;1.30;;
57778;SDS011;43608;49.486;9.640;2023-03-25T00:29:46;2.05;;;1.40;;
57778;SDS011;43608;49.486;9.640;2023-03-25T00:30:17;1.98;;;1.30;;
57778;SDS011;43608;49.486;9.640;2023-03-25T00:30:48;1.50;;;1.33;;
57778;SDS011;43608;49.486;9.640;2023-03-25T00:31:18;2.35;;;1.30;;
57778;SDS011;43608;49.486;9.640;2023-03-25T00:31:49;1.50;;;1.40;;
57778;SDS011;43608;49.486;9.640;2023-03-25T00:32:19;1.70;;;1.40;;
57778;SDS011;43608;49.486;9.640;2023-03-25T00:32:50;2.63;;;1.45;;
57778;SDS011;43608;49.486;9.640;2023-03-25T00:33:21;2.80;;;1.33;;
57778;SDS011;43608;49.486;9.640;2023-03-25T00:33:52;5.90;;;1.63;;
57778;SDS011;43608;49.486;9.640;2023-03-25T00:34:22;1.92;;;1.42;;
57778;SDS011;43608;49.486;9.640;2023-03-25T00:34:52;1.30;;;1.20;;
57778;SDS011;43608;49.486;9.640;2023-03-25T00:35:23;1.42;;;1.20;;
57778;SDS011;43608;49.486;9.640;2023-03-25T00:35:55;2.85;;;1.33;;
57778;SDS011;43608;49.486;9.640;2023-03-25T00:36:28;2.47;;;1.30;;
57778;SDS011;43608;49.486;9.640;2023-03-25T00:36:59;2.55;;;1.20;;
57778;SDS011;43608;49.486;9.640;2023-03-25T00:37:31;3.65;;;1.48;;
57778;SDS011;43608;49.486;9.640;2023-03-25T00:38:01;2.50;;;1.40;;
57778;SDS011;43608;49.486;9.640;2023-03-25T00:38:32;3.13;;;1.42;;
57778;SDS011;43608;49.486;9.640;2023-03-25T00:39:04;2.88;;;1.35;;
57778;SDS011;43608;49.486;9.640;2023-03-25T00:39:35;1.70;;;1.40;;
57778;SDS011;43608;49.486;9.640;2023-03-25T00:40:06;1.70;;;1.13;;
57778;SDS011;43608;49.486;9.640;2023-03-25T00:40:37;1.80;;;1.23;;
57778;SDS011;43608;49.486;9.640;2023-03-25T00:41:41;2.40;;;1.30;;
57778;SDS011;43608;49.486;9.640;2023-03-25T00:42:06;2.33;;;1.45;;
57778;SDS011;43608;49.486;9.640;2023-03-25T00:42:40;3.60;;;1.20;;
57778;SDS011;43608;49.486;9.640;2023-03-25T00:43:13;2.28;;;1.30;;
57778;SDS011;43608;49.486;9.640;2023-03-25T00:43:44;2.15;;;1.25;;
57778;SDS011;43608;49.486;9.640;2023-03-25T00:44:15;3.17;;;1.38;;
57778;SDS011;43608;49.486;9.640;2023-03-25T00:44:47;2.28;;;1.40;;
57778;SDS011;43608;49.486;9.640;2023-03-25T00:45:18;1.30;;;1.10;;
57778;SDS011;43608;49.486;9.640;2023-03-25T00:45:48;3.08;;;1.38;;
57778;SDS011;43608;49.486;9.640;2023-03-25T00:46:24;2.47;;;1.30;;
57778;SDS011;43608;49.486;9.640;2023-03-25T00:46:56;1.67;;;1.30;;
57778;SDS011;43608;49.486;9.640;2023-03-25T00:47:26;2.83;;;1.20;;
57778;SDS011;43608;49.486;9.640;2023-03-25T00:47:57;3.20;;;1.35;;
57778;SDS011;43608;49.486;9.640;2023-03-25T00:48:27;3.28;;;1.40;;
57778;SDS011;43608;49.486;9.640;2023-03-25T00:48:59;2.20;;;1.25;;
57778;SDS011;43608;49.486;9.640;2023-03-25T00:49:30;2.60;;;1.35;;
57778;SDS011;43608;49.486;9.640;2023-03-25T00:50:00;2.25;;;1.10;;
57778;SDS011;43608;49.486;9.640;2023-03-25T00:50:32;2.30;;;1.40;;
57778;SDS011;43608;49.486;9.640;2023-03-25T00:51:03;3.20;;;1.50;;
57778;SDS011;43608;49.486;9.640;2023-03-25T00:51:37;1.73;;;1.30;;
57778;SDS011;43608;49.486;9.640;2023-03-25T00:52:08;1.80;;;1.23;;
57778;SDS011;43608;49.486;9.640;2023-03-25T00:52:38;2.35;;;1.48;;
57778;SDS011;43608;49.486;9.640;2023-03-25T00:53:09;1.80;;;1.10;;
57778;SDS011;43608;49.486;9.640;2023-03-25T00:53:39;2.28;;;1.33;;
57778;SDS011;43608;49.486;9.640;2023-03-25T00:54:10;1.55;;;1.20;;
57778;SDS011;43608;49.486;9.640;2023-03-25T00:54:40;2.55;;;1.30;;
57778;SDS011;43608;49.486;9.640;2023-03-25T00:55:12;2.25;;;1.20;;
57778;SDS011;43608;49.486;9.640;2023-03-25T00:55:42;3.10;;;1.27;;
57778;SDS011;43608;49.486;9.640;2023-03-25T00:56:13;2.20;;;1.30;;
57778;SDS011;43608;49.486;9.640;2023-03-25T00:56:43;2.22;;;1.30;;
57778;SDS011;43608;49.486;9.640;2023-03-25T00:57:14;2.33;;;1.20;;
57778;SDS011;43608;49.486;9.640;2023-03-25T00:57:46;2.22;;;1.17;;
57778;SDS011;43608;49.486;9.640;2023-03-25T00:58:16;2.85;;;1.58;;
57778;SDS011;43608;49.486;9.640;2023-03-25T00:58:47;1.58;;;1.38;;
57778;SDS011;43608;49.486;9.640;2023-03-25T00:59:17;1.77;;;1.20;;
57778;SDS011;43608;49.486;9.640;2023-03-25T00:59:48;1.90;;;1.30;;
57778;SDS011;43608;49.486;9.640;2023-03-25T01:00:18;2.42;;;1.27;;
57778;SDS011;43608;49.486;9.640;2023-03-25T01:00:49;3.47;;;1.42;;
57778;SDS011;43608;49.486;9.640;2023-03-25T01:01:20;2.90;;;1.30;;
57778;SDS011;43608;49.486;9.640;2023-03-25T01:01:56;3.88;;;1.67;;
57778;SDS011;43608;49.486;9.640;2023-03-25T01:02:27;2.55;;;1.50;;
57778;SDS011;43608;49.486;9.640;2023-03-25T01:02:57;3.00;;;1.42;;
57778;SDS011;43608;49.486;9.640;2023-03-25T01:03:28;4.88;;;1.52;;
57778;SDS011;43608;49.486;9.640;2023-03-25T01:03:58;3.20;;;1.30;;
57778;SDS011;43608;49.486;9.640;2023-03-25T01:04:29;2.45;;;1.33;;
57778;SDS011;43608;49.486;9.640;2023-03-25T01:05:00;3.15;;;1.40;;
57778;SDS011;43608;49.486;9.640;2023-03-25T01:05:31;2.47;;;1.50;;
57778;SDS011;43608;49.486;9.640;2023-03-25T01:06:02;2.88;;;1.33;;
57778;SDS011;43608;49.486;9.640;2023-03-25T01:06:33;3.22;;;1.30;;
57778;SDS011;43608;49.486;9.640;2023-03-25T01:07:05;3.67;;;1.55;;
57778;SDS011;43608;49.486;9.640;2023-03-25T01:07:36;4.97;;;1.60;;
57778;SDS011;43608;49.486;9.640;2023-03-25T01:08:07;1.27;;;1.17;;
57778;SDS011;43608;49.486;9.640;2023-03-25T01:08:39;3.20;;;1.20;;
57778;SDS011;43608;49.486;9.640;2023-03-25T01:09:11;1.80;;;1.27;;
57778;SDS011;43608;49.486;9.640;2023-03-25T01:09:43;1.60;;;1.10;;
57778;SDS011;43608;49.486;9.640;2023-03-25T01:10:15;3.95;;;1.60;;
57778;SDS011;43608;49.486;9.640;2023-03-25T01:10:46;2.05;;;1.40;;
57778;SDS011;43608;49.486;9.640;2023-03-25T01:11:20;1.30;;;1.20;;
57778;SDS011;43608;49.486;9.640;2023-03-25T01:11:52;1.70;;;1.25;;
57778;SDS011;43608;49.486;9.640;2023-03-25T01:12:23;2.42;;;1.42;;
57778;SDS011;43608;49.486;9.640;2023-03-25T01:12:55;3.35;;;1.55;;
57778;SDS011;43608;49.486;9.640;2023-03-25T01:13:25;2.95;;;1.30;;
57778;SDS011;43608;49.486;9.640;2023-03-25T01:13:56;3.88;;;1.30;;
57778;SDS011;43608;49.486;9.640;2023-03-25T01:14:28;4.70;;;1.30;;
57778;SDS011;43608;49.486;9.640;2023-03-25T01:14:59;2.42;;;1.40;;
57778;SDS011;43608;49.486;9.640;2023-03-25T01:15:30;4.32;;;1.50;;
57778;SDS011;43608;49.486;9.640;2023-03-25T01:16:00;2.13;;;1.20;;
57778;SDS011;43608;49.486;9.640;2023-03-25T01:16:30;3.30;;;1.63;;
57778;SDS011;43608;49.486;9.640;2023-03-25T01:17:01;1.92;;;1.25;;
57778;SDS011;43608;49.486;9.640;2023-03-25T01:17:32;2.20;;;1.42;;
57778;SDS011;43608;49.486;9.640;2023-03-25T01:18:02;2.10;;;1.40;;
57778;SDS011;43608;49.486;9.640;2023-03-25T01:18:33;3.63;;;1.40;;
57778;SDS011;43608;49.486;9.640;2023-03-25T01:19:07;2.05;;;1.30;;
57778;SDS011;43608;49.486;9.640;2023-03-25T01:19:38;4.40;;;1.50;;
57778;SDS011;43608;49.486;9.640;2023-03-25T01:20:08;2.92;;;1.50;;
57778;SDS011;43608;49.486;9.640;2023-03-25T01:20:39;1.73;;;1.30;;
57778;SDS011;43608;49.486;9.640;2023-03-25T01:21:09;3.55;;;1.38;;
57778;SDS011;43608;49.486;9.640;2023-03-25T01:21:40;3.25;;;1.48;;
57778;SDS011;43608;49.486;9.640;2023-03-25T01:22:11;1.45;;;1.20;;
57778;SDS011;43608;49.486;9.640;2023-03-25T01:22:41;3.70;;;1.42;;
57778;SDS011;43608;49.486;9.640;2023-03-25T01:23:12;2.03;;;1.20;;
57778;SDS011;43608;49.486;9.640;2023-03-25T01:23:42;1.80;;;1.35;;
57778;SDS011;43608;49.486;9.640;2023-03-25T01:24:13;3.72;;;1.30;;
57778;SDS011;43608;49.486;9.640;2023-03-25T01:24:44;3.03;;;1.70;;
57778;SDS011;43608;49.486;9.640;2023-03-25T01:25:14;2.80;;;1.40;;
57778;SDS011;43608;49.486;9.640;2023-03-25T01:25:45;3.08;;;1.33;;
57778;SDS011;43608;49.486;9.640;2023-03-25T01:26:15;3.08;;;1.50;;
57778;SDS011;43608;49.486;9.640;2023-03-25T01:26:46;2.50;;;1.20;;
57778;SDS011;43608;49.486;9.640;2023-03-25T01:27:16;3.58;;;1.38;;
57778;SDS011;43608;49.486;9.640;2023-03-25T01:27:46;2.85;;;1.50;;
57778;SDS011;43608;49.486;9.640;2023-03-25T01:28:17;2.45;;;1.50;;
57778;SDS011;43608;49.486;9.640;2023-03-25T01:28:49;3.28;;;1.50;;
57778;SDS011;43608;49.486;9.640;2023-03-25T01:29:20;2.47;;;1.35;;
57778;SDS011;43608;49.486;9.640;2023-03-25T01:29:51;2.00;;;1.33;;
57778;SDS011;43608;49.486;9.640;2023-03-25T01:30:23;1.83;;;1.17;;
57778;SDS011;43608;49.486;9.640;2023-03-25T01:31:04;3.92;;;1.30;;
57778;SDS011;43608;49.486;9.640;2023-03-25T01:31:36;2.97;;;1.38;;
57778;SDS011;43608;49.486;9.640;2023-03-25T01:32:06;1.45;;;1.27;;
57778;SDS011;43608;49.486;9.640;2023-03-25T01:32:37;4.18;;;1.60;;
57778;SDS011;43608;49.486;9.640;2023-03-25T01:33:07;3.50;;;1.50;;
57778;SDS011;43608;49.486;9.640;2023-03-25T01:33:38;2.92;;;1.45;;
57778;SDS011;43608;49.486;9.640;2023-03-25T01:34:09;2.33;;;1.40;;
57778;SDS011;43608;49.486;9.640;2023-03-25T01:34:40;4.07;;;1.40;;
57778;SDS011;43608;49.486;9.640;2023-03-25T01:35:11;2.40;;;1.27;;
57778;SDS011;43608;49.486;9.640;2023-03-25T01:35:42;2.95;;;1.35;;
57778;SDS011;43608;49.486;9.640;2023-03-25T01:36:12;2.95;;;1.30;;
57778;SDS011;43608;49.486;9.640;2023-03-25T01:36:42;3.30;;;1.50;;
57778;SDS011;43608;49.486;9.640;2023-03-25T01:37:15;2.05;;;1.27;;
57778;SDS011;43608;49.486;9.640;2023-03-25T01:37:47;2.22;;;1.02;;
57778;SDS011;43608;49.486;9.640;2023-03-25T01:38:18;2.60;;;1.35;;
57778;SDS011;43608;49.486;9.640;2023-03-25T01:38:49;3.53;;;1.30;;
57778;SDS011;43608;49.486;9.640;2023-03-25T01:39:20;1.52;;;0.90;;
57778;SDS011;43608;49.486;9.640;2023-03-25T01:39:51;2.20;;;1.20;;
57778;SDS011;43608;49.486;9.640;2023-03-25T01:40:22;2.97;;;1.20;;
57778;SDS011;43608;49.486;9.640;2023-03-25T01:40:53;2.40;;;1.10;;
57778;SDS011;43608;49.486;9.640;2023-03-25T01:41:24;2.75;;;1.27;;
57778;SDS011;43608;49.486;9.640;2023-03-25T01:41:56;3.00;;;1.38;;
57778;SDS011;43608;49.486;9.640;2023-03-25T01:42:26;1.65;;;1.27;;
57778;SDS011;43608;49.486;9.640;2023-03-25T01:42:56;2.60;;;1.30;;
57778;SDS011;43608;49.486;9.640;2023-03-25T01:43:27;3.85;;;1.40;;
57778;SDS011;43608;49.486;9.640;2023-03-25T01:45:12;2.55;;;1.33;;
57778;SDS011;43608;49.486;9.640;2023-03-25T01:45:49;2.35;;;1.30;;
57778;SDS011;43608;49.486;9.640;2023-03-25T01:46:20;3.35;;;1.25;;
57778;SDS011;43608;49.486;9.640;2023-03-25T01:46:51;3.58;;;1.40;;
57778;SDS011;43608;49.486;9.640;2023-03-25T01:47:21;2.85;;;1.48;;
57778;SDS011;43608;49.486;9.640;2023-03-25T01:48:03;2.42;;;1.25;;
57778;SDS011;43608;49.486;9.640;2023-03-25T01:48:40;1.83;;;1.23;;
57778;SDS011;43608;49.486;9.640;2023-03-25T01:49:17;2.28;;;1.20;;
57778;SDS011;43608;49.486;9.640;2023-03-25T01:49:52;3.13;;;1.10;;
57778;SDS011;43608;49.486;9.640;2023-03-25T01:50:23;3.35;;;1.20;;
57778;SDS011;43608;49.486;9.640;2023-03-25T01:50:59;2.72;;;1.13;;
57778;SDS011;43608;49.486;9.640;2023-03-25T01:51:54;3.47;;;1.40;;
57778;SDS011;43608;49.486;9.640;2023-03-25T01:52:28;2.78;;;1.13;;
57778;SDS011;43608;49.486;9.640;2023-03-25T01:53:00;1.90;;;1.30;;
57778;SDS011;43608;49.486;9.640;2023-03-25T01:53:32;2.55;;;1.10;;
57778;SDS011;43608;49.486;9.640;2023-03-25T01:54:03;3.40;;;1.20;;
57778;SDS011;43608;49.486;9.640;2023-03-25T01:54:34;3.40;;;1.30;;
57778;SDS011;43608;49.486;9.640;2023-03-25T01:55:07;1.95;;;1.25;;
57778;SDS011;43608;49.486;9.640;2023-03-25T01:55:39;3.65;;;1.33;;
57778;SDS011;43608;49.486;9.640;2023-03-25T01:56:10;1.73;;;1.05;;
57778;SDS011;43608;49.486;9.640;2023-03-25T01:56:45;2.63;;;1.27;;
57778;SDS011;43608;49.486;9.640;2023-03-25T01:57:19;3.17;;;1.23;;
57778;SDS011;43608;49.486;9.640;2023-03-25T01:57:51;2.53;;;1.38;;
57778;SDS011;43608;49.486;9.640;2023-03-25T01:58:25;3.00;;;1.35;;
57778;SDS011;43608;49.486;9.640;2023-03-25T01:59:00;2.83;;;1.30;;
57778;SDS011;43608;49.486;9.640;2023-03-25T01:59:33;2.05;;;1.20;;
57778;SDS011;43608;49.486;9.640;2023-03-25T02:00:05;2.08;;;1.23;;
57778;SDS011;43608;49.486;9.640;2023-03-25T02:00:38;2.85;;;1.20;;
57778;SDS011;43608;49.486;9.640;2023-03-25T02:01:12;2.50;;;1.50;;
57778;SDS011;43608;49.486;9.640;2023-03-25T02:01:47;1.45;;;1.10;;
57778;SDS011;43608;49.486;9.640;2023-03-25T02:02:17;3.00;;;1.02;;
57778;SDS011;43608;49.486;9.640;2023-03-25T02:02:49;2.90;;;1.27;;
57778;SDS011;43608;49.486;9.640;2023-03-25T02:03:19;2.25;;;1.25;;
57778;SDS011;43608;49.486;9.640;2023-03-25T02:03:52;3.92;;;1.48;;
57778;SDS011;43608;49.486;9.640;2023-03-25T02:05:34;4.95;;;1.48;;
57778;SDS011;43608;49.486;9.640;2023-03-25T02:06:14;2.47;;;1.20;;
57778;SDS011;43608;49.486;9.640;2023-03-25T02:06:49;2.60;;;1.38;;
57778;SDS011;43608;49.486;9.640;2023-03-25T02:07:22;2.95;;;1.50;;
57778;SDS011;43608;49.486;9.640;2023-03-25T02:07:59;2.92;;;1.30;;
57778;SDS011;43608;49.486;9.640;2023-03-25T02:08:33;3.05;;;1.42;;
57778;SDS011;43608;49.486;9.640;2023-03-25T02:09:07;3.72;;;1.40;;
57778;SDS011;43608;49.486;9.640;2023-03-25T02:09:40;4.10;;;1.60;;
57778;SDS011;43608;49.486;9.640;2023-03-25T02:10:12;2.65;;;1.25;;
57778;SDS011;43608;49.486;9.640;2023-03-25T02:10:46;3.38;;;1.38;;
57778;SDS011;43608;49.486;9.640;2023-03-25T02:11:16;3.17;;;1.48;;
57778;SDS011;43608;49.486;9.640;2023-03-25T02:11:47;2.53;;;1.20;;
57778;SDS011;43608;49.486;9.640;2023-03-25T02:12:17;2.40;;;1.25;;
57778;SDS011;43608;49.486;9.640;2023-03-25T02:12:48;2.65;;;1.20;;
57778;SDS011;43608;49.486;9.640;2023-03-25T02:13:18;1.63;;;1.23;;
57778;SDS011;43608;49.486;9.640;2023-03-25T02:13:50;4.28;;;1.48;;
57778;SDS011;43608;49.486;9.640;2023-03-25T02:14:21;2.25;;;1.10;;
57778;SDS011;43608;49.486;9.640;2023-03-25T02:14:56;3.33;;;1.40;;
57778;SDS011;43608;49.486;9.640;2023-03-25T02:15:34;2.70;;;1.40;;
57778;SDS011;43608;49.486;9.640;2023-03-25T02:18:51;3.42;;;1.30;;
57778;SDS011;43608;49.486;9.640;2023-03-25T02:20:07;2.47;;;1.15;;
57778;SDS011;43608;49.486;9.640;2023-03-25T02:24:43;5.20;;;1.50;;
57778;SDS011;43608;49.486;9.640;2023-03-25T02:25:34;3.65;;;1.42;;
57778;SDS011;43608;49.486;9.640;2023-03-25T02:37:48;3.28;;;1.42;;
57778;SDS011;43608;49.486;9.640;2023-03-25T02:38:43;4.57;;;1.35;;
57778;SDS011;43608;49.486;9.640;2023-03-25T02:40:08;4.72;;;1.40;;
57778;SDS011;43608;49.486;9.640;2023-03-25T02:40:53;2.95;;;1.20;;
57778;SDS011;43608;49.486;9.640;2023-03-25T02:41:31;1.77;;;1.10;;
57778;SDS011;43608;49.486;9.640;2023-03-25T02:42:48;2.53;;;1.23;;
57778;SDS011;43608;49.486;9.640;2023-03-25T02:43:25;2.10;;;1.15;;
57778;SDS011;43608;49.486;9.640;2023-03-25T02:44:00;2.63;;;1.17;;
57778;SDS011;43608;49.486;9.640;2023-03-25T02:44:35;4.70;;;1.80;;
57778;SDS011;43608;49.486;9.640;2023-03-25T02:46:09;2.92;;;1.20;;
57778;SDS011;43608;49.486;9.640;2023-03-25T02:46:46;3.78;;;1.38;;
57778;SDS011;43608;49.486;9.640;2023-03-25T02:47:21;3.80;;;1.25;;
57778;SDS011;43608;49.486;9.640;2023-03-25T02:47:56;2.10;;;1.20;;
57778;SDS011;43608;49.486;9.640;2023-03-25T02:48:50;3.70;;;1.30;;
57778;SDS011;43608;49.486;9.640;2023-03-25T02:49:30;3.65;;;1.50;;
57778;SDS011;43608;49.486;9.640;2023-03-25T02:50:35;2.30;;;0.98;;
57778;SDS011;43608;49.486;9.640;2023-03-25T02:51:06;4.50;;;1.60;;
57778;SDS011;43608;49.486;9.640;2023-03-25T02:52:01;5.55;;;1.63;;
57778;SDS011;43608;49.486;9.640;2023-03-25T02:52:42;2.15;;;1.20;;
57778;SDS011;43608;49.486;9.640;2023-03-25T02:53:22;2.83;;;1.30;;
57778;SDS011;43608;49.486;9.640;2023-03-25T02:54:06;3.47;;;1.45;;
57778;SDS011;43608;49.486;9.640;2023-03-25T02:54:41;2.30;;;1.30;;
57778;SDS011;43608;49.486;9.640;2023-03-25T02:55:17;2.90;;;1.27;;
57778;SDS011;43608;49.486;9.640;2023-03-25T02:55:50;2.65;;;1.35;;
57778;SDS011;43608;49.486;9.640;2023-03-25T02:56:24;4.10;;;1.60;;
57778;SDS011;43608;49.486;9.640;2023-03-25T02:56:56;2.80;;;1.30;;
57778;SDS011;43608;49.486;9.640;2023-03-25T02:57:28;1.73;;;1.13;;
57778;SDS011;43608;49.486;9.640;2023-03-25T02:58:03;2.63;;;1.42;;
57778;SDS011;43608;49.486;9.640;2023-03-25T02:58:38;2.80;;;1.33;;
57778;SDS011;43608;49.486;9.640;2023-03-25T02:59:10;1.98;;;1.00;;
57778;SDS011;43608;49.486;9.640;2023-03-25T02:59:45;5.55;;;1.70;;
57778;SDS011;43608;49.486;9.640;2023-03-25T03:00:19;3.28;;;1.40;;
57778;SDS011;43608;49.486;9.640;2023-03-25T03:00:53;1.88;;;1.27;;
57778;SDS011;43608;49.486;9.640;2023-03-25T03:01:27;4.10;;;1.50;;
57778;SDS011;43608;49.486;9.640;2023-03-25T03:01:58;2.83;;;1.42;;
57778;SDS011;43608;49.486;9.640;2023-03-25T03:02:32;5.38;;;1.52;;
57778;SDS011;43608;49.486;9.640;2023-03-25T03:03:04;2.03;;;1.30;;
57778;SDS011;43608;49.486;9.640;2023-03-25T03:03:35;5.38;;;1.90;;
57778;SDS011;43608;49.486;9.640;2023-03-25T03:04:06;3.97;;;2.45;;
57778;SDS011;43608;49.486;9.640;2023-03-25T03:04:50;8.70;;;4.13;;
57778;SDS011;43608;49.486;9.640;2023-03-25T03:05:24;7.18;;;2.80;;
57778;SDS011;43608;49.486;9.640;2023-03-25T03:06:00;5.05;;;1.95;;
57778;SDS011;43608;49.486;9.640;2023-03-25T03:06:35;5.90;;;1.73;;
57778;SDS011;43608;49.486;9.640;2023-03-25T03:07:10;4.45;;;1.33;;
57778;SDS011;43608;49.486;9.640;2023-03-25T03:07:53;4.35;;;1.60;;
57778;SDS011;43608;49.486;9.640;2023-03-25T03:10:25;2.38;;;1.00;;
57778;SDS011;43608;49.486;9.640;2023-03-25T03:11:39;2.83;;;1.20;;
57778;SDS011;43608;49.486;9.640;2023-03-25T03:15:16;2.72;;;1.10;;
57778;SDS011;43608;49.486;9.640;2023-03-25T03:16:57;1.58;;;0.90;;
57778;SDS011;43608;49.486;9.640;2023-03-25T03:20:22;1.42;;;0.98;;
57778;SDS011;43608;49.486;9.640;2023-03-25T03:21:11;1.77;;;1.05;;
57778;SDS011;43608;49.486;9.640;2023-03-25T03:22:09;2.20;;;0.90;;
57778;SDS011;43608;49.486;9.640;2023-03-25T03:23:26;1.60;;;0.95;;
57778;SDS011;43608;49.486;9.640;2023-03-25T03:24:10;0.80;;;0.80;;
57778;SDS011;43608;49.486;9.640;2023-03-25T03:25:34;1.58;;;0.95;;
57778;SDS011;43608;49.486;9.640;2023-03-25T03:26:33;1.50;;;0.90;;
57778;SDS011;43608;49.486;9.640;2023-03-25T03:27:54;0.80;;;0.65;;
57778;SDS011;43608;49.486;9.640;2023-03-25T03:29:06;1.90;;;1.10;;
57778;SDS011;43608;49.486;9.640;2023-03-25T03:29:44;2.00;;;1.02;;
57778;SDS011;43608;49.486;9.640;2023-03-25T03:30:26;1.85;;;1.10;;
57778;SDS011;43608;49.486;9.640;2023-03-25T03:31:14;2.70;;;1.05;;
57778;SDS011;43608;49.486;9.640;2023-03-25T03:32:12;1.00;;;0.90;;
57778;SDS011;43608;49.486;9.640;2023-03-25T03:32:53;2.42;;;0.82;;
57778;SDS011;43608;49.486;9.640;2023-03-25T03:33:29;1.98;;;0.95;;
57778;SDS011;43608;49.486;9.640;2023-03-25T03:34:30;1.05;;;0.90;;
57778;SDS011;43608;49.486;9.640;2023-03-25T03:35:21;2.78;;;1.30;;
57778;SDS011;43608;49.486;9.640;2023-03-25T03:36:05;1.35;;;0.88;;
57778;SDS011;43608;49.486;9.640;2023-03-25T03:36:40;1.45;;;1.00;;
57778;SDS011;43608;49.486;9.640;2023-03-25T03:37:17;1.55;;;1.10;;
57778;SDS011;43608;49.486;9.640;2023-03-25T03:37:57;1.80;;;1.00;;
57778;SDS011;43608;49.486;9.640;2023-03-25T03:39:10;3.90;;;1.10;;
57778;SDS011;43608;49.486;9.640;2023-03-25T03:39:46;1.98;;;1.00;;
57778;SDS011;43608;49.486;9.640;2023-03-25T03:40:18;2.28;;;1.05;;
57778;SDS011;43608;49.486;9.640;2023-03-25T03:40:54;1.98;;;1.05;;
57778;SDS011;43608;49.486;9.640;2023-03-25T03:41:27;1.58;;;0.80;;
57778;SDS011;43608;49.486;9.640;2023-03-25T03:42:04;2.70;;;1.00;;
57778;SDS011;43608;49.486;9.640;2023-03-25T03:43:21;0.70;;;0.70;;
57778;SDS011;43608;49.486;9.640;2023-03-25T03:44:02;1.35;;;0.73;;
57778;SDS011;43608;49.486;9.640;2023-03-25T03:44:37;0.88;;;0.70;;
57778;SDS011;43608;49.486;9.640;2023-03-25T03:45:12;1.75;;;1.10;;
57778;SDS011;43608;49.486;9.640;2023-03-25T03:45:47;1.67;;;1.00;;
57778;SDS011;43608;49.486;9.640;2023-03-25T03:46:23;2.38;;;1.23;;
57778;SDS011;43608;49.486;9.640;2023-03-25T03:47:06;2.58;;;1.10;;
57778;SDS011;43608;49.486;9.640;2023-03-25T03:47:42;1.83;;;0.80;;
57778;SDS011;43608;49.486;9.640;2023-03-25T03:48:19;1.42;;;0.90;;
57778;SDS011;43608;49.486;9.640;2023-03-25T03:48:55;0.70;;;0.70;;
57778;SDS011;43608;49.486;9.640;2023-03-25T03:49:31;3.63;;;1.23;;
57778;SDS011;43608;49.486;9.640;2023-03-25T03:50:08;0.70;;;0.70;;
57778;SDS011;43608;49.486;9.640;2023-03-25T03:50:48;2.63;;;1.10;;
57778;SDS011;43608;49.486;9.640;2023-03-25T03:51:28;2.65;;;0.95;;
57778;SDS011;43608;49.486;9.640;2023-03-25T03:53:59;1.25;;;1.00;;
57778;SDS011;43608;49.486;9.640;2023-03-25T03:54:41;2.45;;;1.13;;
57778;SDS011;43608;49.486;9.640;2023-03-25T03:55:19;2.72;;;0.95;;
57778;SDS011;43608;49.486;9.640;2023-03-25T03:55:59;2.10;;;0.93;;
57778;SDS011;43608;49.486;9.640;2023-03-25T03:56:43;2.15;;;0.93;;
57778;SDS011;43608;49.486;9.640;2023-03-25T03:57:21;1.83;;;1.10;;
57778;SDS011;43608;49.486;9.640;2023-03-25T03:58:12;2.35;;;1.05;;
57778;SDS011;43608;49.486;9.640;2023-03-25T03:58:51;2.17;;;1.13;;
57778;SDS011;43608;49.486;9.640;2023-03-25T03:59:38;1.90;;;0.73;;
57778;SDS011;43608;49.486;9.640;2023-03-25T04:00:15;0.93;;;0.80;;
57778;SDS011;43608;49.486;9.640;2023-03-25T04:00:53;2.22;;;1.10;;
57778;SDS011;43608;49.486;9.640;2023-03-25T04:01:35;1.88;;;0.93;;
57778;SDS011;43608;49.486;9.640;2023-03-25T04:03:29;1.83;;;0.80;;
57778;SDS011;43608;49.486;9.640;2023-03-25T04:04:07;2.22;;;0.88;;
57778;SDS011;43608;49.486;9.640;2023-03-25T04:04:39;1.00;;;0.90;;
57778;SDS011;43608;49.486;9.640;2023-03-25T04:05:12;2.00;;;0.82;;
57778;SDS011;43608;49.486;9.640;2023-03-25T04:05:47;3.60;;;1.38;;